Time;durP1;ratioP1;P1;durP2;ratioP2;P2;SDS_P1;SDS_P2;PMS_P1;PMS_P2;Temp;Humidity;BMP_temperature;BMP_pressure;BME280_temperature;BME280_humidity;BME280_pressure;Samples;Min_cycle;Max_cycle;Signal;HPM_P1;HPM_P2
2022/01/06 00:00:12;;;;;;;33.33;4.85;;;4.60;99.90;;;;;;5153749;27;20479;-77
2022/01/06 00:02:39;;;;;;;30.73;4.88;;;5.30;99.90;;;;;;5153197;27;20117;-86
2022/01/06 00:05:06;;;;;;;27.10;4.85;;;5.90;99.90;;;;;;5153901;27;20269;-78
2022/01/06 00:07:32;;;;;;;25.58;4.22;;;4.80;99.90;;;;;;5152812;27;20054;-78
2022/01/06 00:09:59;;;;;;;25.95;4.90;;;4.90;99.90;;;;;;5152928;27;20050;-78
2022/01/06 00:12:34;;;;;;;23.80;4.90;;;7.00;99.90;;;;;;5153452;27;20078;-79
2022/01/06 00:15:08;;;;;;;28.30;4.97;;;7.10;99.90;;;;;;5153059;27;20050;-79
2022/01/06 00:18:10;;;;;;;28.67;5.35;;;3.40;99.90;;;;;;5153556;27;20046;-78
2022/01/06 00:23:31;;;;;;;30.92;4.90;;;4.80;99.90;;;;;;5152827;27;20054;-79
2022/01/06 00:25:58;;;;;;;30.25;6.20;;;5.30;99.90;;;;;;5131818;27;20039;-78
2022/01/06 00:28:25;;;;;;;35.40;4.85;;;7.00;99.90;;;;;;5134355;27;20047;-77
2022/01/06 00:30:51;;;;;;;24.75;4.75;;;;;;;;;;5152977;27;20193;-77
2022/01/06 00:33:18;;;;;;;27.70;4.55;;;4.90;99.90;;;;;;5153053;27;20126;-78
2022/01/06 00:35:43;;;;;;;43.72;7.50;;;6.20;99.90;;;;;;5152695;27;20493;-77
2022/01/06 00:38:09;;;;;;;26.25;4.70;;;7.10;99.90;;;;;;5152838;27;20053;-79
2022/01/06 00:40:36;;;;;;;93.22;10.30;;;6.00;99.90;;;;;;5152433;27;20039;-77
2022/01/06 00:43:04;;;;;;;23.77;5.10;;;8.90;99.90;;;;;;5152824;27;20390;-78
2022/01/06 00:45:31;;;;;;;29.52;4.70;;;5.40;99.90;;;;;;5152960;27;20058;-79
2022/01/06 00:47:57;;;;;;;21.77;3.93;;;4.00;99.90;;;;;;5152705;27;20047;-78
2022/01/06 00:50:23;;;;;;;20.80;4.30;;;4.80;99.90;;;;;;5153004;27;20051;-78
2022/01/06 00:52:49;;;;;;;19.80;4.78;;;5.50;99.90;;;;;;5152180;27;20363;-78
2022/01/06 00:55:15;;;;;;;22.98;3.95;;;;;;;;;;5152341;27;20050;-77
2022/01/06 00:57:41;;;;;;;24.48;4.15;;;5.30;99.90;;;;;;5152886;27;20066;-83
2022/01/06 01:00:09;;;;;;;23.67;4.13;;;4.70;99.90;;;;;;5134307;27;20145;-77
2022/01/06 01:02:35;;;;;;;17.25;3.75;;;4.90;99.90;;;;;;5132169;27;20140;-78
2022/01/06 01:05:00;;;;;;;27.55;4.22;;;4.50;99.90;;;;;;5131882;27;20115;-77
2022/01/06 01:07:26;;;;;;;24.77;3.97;;;6.40;99.90;;;;;;5131251;27;20398;-77
2022/01/06 01:09:52;;;;;;;26.73;3.65;;;5.00;99.90;;;;;;5130980;27;20051;-77
2022/01/06 01:12:18;;;;;;;22.38;3.53;;;6.90;99.90;;;;;;5131350;27;20096;-78
2022/01/06 01:15:03;;;;;;;33.58;4.10;;;;;;;;;;5131170;28;20049;-78
2022/01/06 01:17:29;;;;;;;14.73;3.88;;;4.50;99.90;;;;;;5131980;28;20053;-77
2022/01/06 01:19:55;;;;;;;19.90;3.25;;;4.60;99.90;;;;;;5131398;28;20047;-78
2022/01/06 01:22:21;;;;;;;20.88;3.53;;;6.00;99.90;;;;;;5113052;28;20058;-79
2022/01/06 01:24:47;;;;;;;22.73;4.50;;;4.20;99.90;;;;;;5112526;28;20123;-77
2022/01/06 01:27:15;;;;;;;27.25;3.53;;;6.50;99.90;;;;;;5131549;28;20556;-78
2022/01/06 01:29:56;;;;;;;25.75;4.22;;;6.20;99.90;;;;;;5144321;27;20071;-78
2022/01/06 01:32:28;;;;;;;24.65;3.75;;;7.20;99.90;;;;;;5152431;27;20042;-77
2022/01/06 01:34:59;;;;;;;35.42;3.90;;;5.70;99.90;;;;;;5144059;27;20043;-77
2022/01/06 01:37:25;;;;;;;28.80;3.17;;;6.00;99.90;;;;;;5131236;28;20039;-77
2022/01/06 01:39:51;;;;;;;36.22;4.85;;;4.50;99.90;;;;;;5130390;28;20055;-78
2022/01/06 01:42:17;;;;;;;25.65;3.90;;;4.00;99.90;;;;;;5131409;28;20042;-77
2022/01/06 01:44:44;;;;;;;23.20;3.45;;;;;;;;;;5131299;28;20222;-77
2022/01/06 01:47:14;;;;;;;35.38;4.10;;;4.70;99.90;;;;;;5130908;28;20055;-78
2022/01/06 01:50:12;;;;;;;34.35;4.28;;;5.40;99.90;;;;;;5142717;27;20476;-78
2022/01/06 01:52:29;;;;;;;21.48;4.47;;;3.70;99.90;;;;;;5150037;27;20043;-78
2022/01/06 01:54:55;;;;;;;34.17;4.75;;;4.60;99.90;;;;;;5151266;27;20034;-77
2022/01/06 01:57:20;;;;;;;28.85;4.25;;;6.90;99.90;;;;;;5151842;27;20049;-78
2022/01/06 01:59:47;;;;;;;26.08;4.18;;;6.70;99.90;;;;;;5151719;27;20065;-77
2022/01/06 02:02:12;;;;;;;30.27;4.88;;;4.00;99.90;;;;;;5151965;27;20511;-77
2022/01/06 02:04:38;;;;;;;21.10;4.50;;;6.10;99.90;;;;;;5151965;27;20130;-77
2022/01/06 02:07:04;;;;;;;27.10;4.05;;;6.00;99.90;;;;;;5132283;27;20555;-77
2022/01/06 02:09:29;;;;;;;27.42;4.55;;;5.10;99.90;;;;;;5151793;27;20046;-77
2022/01/06 02:11:55;;;;;;;24.73;3.95;;;5.80;99.90;;;;;;5133094;27;20466;-77
2022/01/06 02:14:25;;;;;;;32.20;4.18;;;6.80;99.90;;;;;;5153515;27;20081;-78
2022/01/06 02:16:53;;;;;;;31.20;4.45;;;5.20;99.90;;;;;;5155300;27;20160;-77
2022/01/06 02:19:19;;;;;;;30.83;3.95;;;5.30;99.90;;;;;;5155959;27;20046;-77
2022/01/06 02:21:44;;;;;;;33.33;4.32;;;4.90;99.90;;;;;;5155181;27;20394;-77
2022/01/06 02:24:10;;;;;;;25.33;4.70;;;5.80;99.90;;;;;;5149959;27;20074;-79
2022/01/06 02:26:36;;;;;;;27.08;4.30;;;4.60;99.90;;;;;;5135243;27;20043;-77
2022/01/06 02:29:02;;;;;;;18.63;4.47;;;5.80;99.90;;;;;;5123075;27;20567;-77
2022/01/06 02:31:28;;;;;;;24.48;4.45;;;5.70;99.90;;;;;;5155638;27;20122;-77
2022/01/06 02:33:54;;;;;;;22.85;3.78;;;3.70;99.90;;;;;;5155040;27;20133;-76
2022/01/06 02:36:20;;;;;;;34.40;4.80;;;6.30;99.90;;;;;;5155955;27;20141;-77
2022/01/06 02:38:46;;;;;;;33.90;4.43;;;5.10;99.90;;;;;;5154678;27;20042;-77
2022/01/06 02:41:12;;;;;;;26.77;4.88;;;6.00;99.90;;;;;;5136405;27;20360;-78
2022/01/06 02:43:37;;;;;;;29.90;4.25;;;3.60;99.90;;;;;;5136834;27;20043;-77
2022/01/06 02:46:03;;;;;;;29.45;4.88;;;5.70;99.90;;;;;;5155090;27;20479;-77
2022/01/06 02:48:29;;;;;;;26.27;4.68;;;4.40;99.90;;;;;;5155137;27;20559;-78
2022/01/06 02:50:55;;;;;;;29.25;4.70;;;3.70;99.90;;;;;;5154678;27;20047;-77
2022/01/06 02:53:20;;;;;;;39.90;4.80;;;4.50;99.90;;;;;;5154758;27;20459;-78
2022/01/06 02:55:52;;;;;;;35.13;4.97;;;4.60;99.90;;;;;;5154710;27;20073;-77
2022/01/06 02:58:18;;;;;;;32.20;4.78;;;3.80;99.90;;;;;;5155280;27;20046;-77
2022/01/06 03:00:44;;;;;;;32.13;4.88;;;6.30;99.90;;;;;;5150803;27;20092;-77
2022/01/06 03:03:10;;;;;;;30.63;4.78;;;;;;;;;;5133671;27;20662;-78
2022/01/06 03:05:36;;;;;;;36.80;5.10;;;4.60;99.90;;;;;;5133963;27;20396;-78
2022/01/06 03:08:02;;;;;;;26.20;4.82;;;2.70;99.90;;;;;;5133365;27;20051;-77
2022/01/06 03:10:30;;;;;;;25.95;4.53;;;4.60;99.90;;;;;;5115586;27;20039;-78
2022/01/06 03:12:56;;;;;;;26.63;3.80;;;6.70;99.90;;;;;;5133738;27;20118;-77
2022/01/06 03:15:23;;;;;;;38.70;4.85;;;6.90;99.90;;;;;;5134218;27;20105;-78
2022/01/06 03:17:57;;;;;;;32.55;4.60;;;3.90;99.90;;;;;;5133820;27;20092;-79
2022/01/06 03:20:25;;;;;;;29.58;4.38;;;4.00;99.90;;;;;;5134028;27;20054;-77
2022/01/06 03:22:52;;;;;;;30.23;4.55;;;4.20;99.90;;;;;;5133785;27;20569;-77
2022/01/06 03:25:19;;;;;;;28.75;4.40;;;7.00;99.90;;;;;;5132065;27;20455;-78
2022/01/06 03:27:45;;;;;;;29.17;4.32;;;3.60;99.90;;;;;;5133688;27;20046;-77
2022/01/06 03:30:13;;;;;;;36.92;3.83;;;3.70;99.90;;;;;;5150266;27;20051;-78
2022/01/06 03:32:39;;;;;;;34.15;4.32;;;6.50;99.90;;;;;;5135611;27;20122;-77
2022/01/06 03:35:06;;;;;;;29.83;4.30;;;3.90;99.90;;;;;;5154022;27;20126;-77
2022/01/06 03:37:31;;;;;;;31.45;3.88;;;5.30;99.90;;;;;;5153966;27;20050;-78
2022/01/06 03:39:59;;;;;;;25.92;3.92;;;;;;;;;;5134207;27;20175;-79
2022/01/06 03:42:25;;;;;;;23.70;3.78;;;;;;;;;;5135789;27;20043;-78
2022/01/06 03:44:51;;;;;;;33.38;4.22;;;;;;;;;;5153702;27;20141;-77
2022/01/06 03:47:17;;;;;;;30.20;3.38;;;6.10;99.90;;;;;;5153352;27;20458;-77
2022/01/06 03:49:42;;;;;;;27.67;4.00;;;4.80;99.90;;;;;;5150636;27;20050;-77
2022/01/06 03:52:08;;;;;;;28.05;4.50;;;1.60;99.90;;;;;;5152894;27;20122;-77
2022/01/06 03:54:34;;;;;;;35.33;4.33;;;6.00;99.90;;;;;;5153417;27;20054;-77
2022/01/06 03:56:59;;;;;;;40.55;4.00;;;2.90;99.90;;;;;;5153393;27;20262;-77
2022/01/06 03:59:25;;;;;;;33.30;3.80;;;3.40;99.90;;;;;;5135203;27;20042;-77
2022/01/06 04:01:51;;;;;;;28.67;4.07;;;3.20;99.90;;;;;;5135205;27;20111;-79
2022/01/06 04:04:17;;;;;;;27.53;3.33;;;3.40;99.90;;;;;;5134511;27;20080;-77
2022/01/06 04:06:43;;;;;;;22.63;3.10;;;2.50;99.90;;;;;;5134789;27;20440;-78
2022/01/06 04:09:09;;;;;;;19.17;3.07;;;5.50;99.90;;;;;;5152594;27;20125;-77
2022/01/06 04:11:35;;;;;;;22.50;2.97;;;2.70;99.90;;;;;;5153487;27;20418;-77
2022/01/06 04:14:01;;;;;;;25.95;3.80;;;;;;;;;;5152593;27;20130;-83
2022/01/06 04:16:28;;;;;;;29.02;4.25;;;5.10;99.90;;;;;;5153229;27;20049;-76
2022/01/06 04:18:53;;;;;;;36.40;4.07;;;3.70;99.90;;;;;;5153129;27;20553;-76
2022/01/06 04:21:19;;;;;;;31.97;3.27;;;;;;;;;;5134659;27;20126;-78
2022/01/06 04:23:48;;;;;;;26.40;3.53;;;2.70;99.90;;;;;;5150858;27;20075;-76
2022/01/06 04:26:16;;;;;;;25.60;3.57;;;2.70;99.90;;;;;;5132226;27;20043;-77
2022/01/06 04:28:42;;;;;;;33.47;4.15;;;3.00;99.90;;;;;;5136605;27;20045;-77
2022/01/06 04:31:08;;;;;;;24.43;3.13;;;2.00;99.90;;;;;;5152895;27;20129;-77
2022/01/06 04:33:34;;;;;;;21.83;3.50;;;3.60;99.90;;;;;;5153303;27;20424;-77
2022/01/06 04:36:01;;;;;;;30.10;3.60;;;3.70;99.90;;;;;;5153052;27;20050;-77
2022/01/06 04:38:27;;;;;;;21.00;3.73;;;3.40;99.90;;;;;;5152278;27;20122;-77
2022/01/06 04:40:53;;;;;;;33.88;3.67;;;5.10;99.90;;;;;;5152616;27;20046;-77
2022/01/06 04:43:19;;;;;;;28.35;3.83;;;2.90;99.90;;;;;;5152461;27;20056;-78
2022/01/06 04:45:45;;;;;;;19.27;2.83;;;;;;;;;;5152707;27;20476;-78
2022/01/06 04:48:11;;;;;;;26.53;3.63;;;3.40;99.90;;;;;;5152580;27;20064;-78
2022/01/06 04:50:37;;;;;;;26.35;3.60;;;4.50;99.90;;;;;;5152983;27;20479;-78
2022/01/06 04:53:03;;;;;;;31.52;4.15;;;2.50;99.90;;;;;;5152415;27;20035;-76
2022/01/06 04:55:29;;;;;;;27.23;3.67;;;;;;;;;;5152139;27;20042;-77
2022/01/06 04:57:55;;;;;;;28.65;3.90;;;2.90;99.90;;;;;;5152579;27;20074;-78
2022/01/06 05:00:21;;;;;;;37.73;3.90;;;2.40;99.90;;;;;;5152481;27;20042;-77
2022/01/06 05:02:47;;;;;;;27.33;3.90;;;5.20;99.90;;;;;;5152818;27;20413;-76
2022/01/06 05:05:13;;;;;;;29.67;2.90;;;2.00;99.90;;;;;;5152340;27;20111;-77
2022/01/06 05:07:40;;;;;;;25.57;4.07;;;3.80;99.90;;;;;;5152266;27;20402;-76
2022/01/06 05:10:07;;;;;;;33.05;3.95;;;2.00;99.90;;;;;;5152611;27;20046;-82
2022/01/06 05:12:33;;;;;;;35.38;3.88;;;2.60;99.90;;;;;;5152691;27;20042;-77
2022/01/06 05:14:59;;;;;;;31.57;4.07;;;1.00;99.90;;;;;;5130266;27;20457;-77
2022/01/06 05:17:25;;;;;;;25.23;3.17;;;2.00;99.90;;;;;;5113121;28;20187;-76
2022/01/06 05:19:51;;;;;;;22.87;3.17;;;1.90;99.90;;;;;;5131602;28;20540;-77
2022/01/06 05:22:17;;;;;;;26.27;3.72;;;2.60;99.90;;;;;;5131005;28;20395;-77
2022/01/06 05:24:42;;;;;;;20.93;3.53;;;4.80;99.90;;;;;;5131273;28;20138;-77
2022/01/06 05:27:10;;;;;;;32.33;3.47;;;;;;;;;;5131524;28;20389;-80
2022/01/06 05:29:37;;;;;;;29.30;3.70;;;4.70;99.90;;;;;;5144087;27;20050;-76
2022/01/06 05:32:03;;;;;;;31.47;3.40;;;2.20;99.90;;;;;;5152295;27;20062;-77
2022/01/06 05:34:28;;;;;;;33.57;3.33;;;3.60;99.90;;;;;;5151853;27;20762;-77
2022/01/06 05:36:54;;;;;;;27.67;3.47;;;2.20;99.90;;;;;;5151973;27;20043;-77
2022/01/06 05:39:20;;;;;;;29.97;3.27;;;2.90;99.90;;;;;;5151756;27;20082;-77
2022/01/06 05:41:46;;;;;;;29.92;3.70;;;2.40;99.90;;;;;;5152047;27;20106;-77
2022/01/06 05:44:12;;;;;;;24.80;3.27;;;;;;;;;;5129715;28;20062;-78
2022/01/06 05:46:38;;;;;;;38.30;3.80;;;2.80;99.90;;;;;;5131903;28;20134;-80
2022/01/06 05:49:05;;;;;;;30.90;3.97;;;2.00;99.90;;;;;;5132820;27;20054;-77
2022/01/06 05:51:31;;;;;;;30.70;4.43;;;2.10;99.90;;;;;;5127469;27;20042;-77
2022/01/06 05:53:57;;;;;;;32.97;4.53;;;1.40;99.90;;;;;;5134769;27;20054;-77
2022/01/06 05:56:22;;;;;;;36.57;4.03;;;1.70;99.90;;;;;;5135108;27;20043;-78
2022/01/06 05:58:48;;;;;;;38.37;4.00;;;2.00;99.90;;;;;;5135334;27;20043;-77
2022/01/06 06:01:14;;;;;;;26.77;4.20;;;2.30;99.90;;;;;;5135293;27;20039;-77
2022/01/06 06:03:40;;;;;;;26.13;4.23;;;1.70;99.90;;;;;;5134155;27;20126;-77
2022/01/06 06:06:05;;;;;;;24.90;3.50;;;3.80;99.90;;;;;;5134448;27;20098;-78
2022/01/06 06:08:31;;;;;;;31.97;4.13;;;1.60;99.90;;;;;;5134771;27;20070;-78
2022/01/06 06:10:57;;;;;;;27.83;4.27;;;1.70;99.90;;;;;;5133527;27;20074;-78
2022/01/06 06:13:23;;;;;;;25.73;3.87;;;;;;;;;;5134902;27;20043;-78
2022/01/06 06:15:49;;;;;;;32.10;4.53;;;2.20;99.90;;;;;;5135276;27;20154;-78
2022/01/06 06:18:16;;;;;;;34.03;4.13;;;;;;;;;;5134966;27;20127;-82
2022/01/06 06:20:41;;;;;;;28.67;3.93;;;2.20;99.90;;;;;;5135174;27;20047;-77
2022/01/06 06:23:08;;;;;;;33.97;4.77;;;;;;;;;;5134415;27;20455;-77
2022/01/06 06:25:34;;;;;;;33.70;4.20;;;2.50;99.90;;;;;;5134167;27;20096;-77
2022/01/06 06:28:00;;;;;;;39.07;4.40;;;1.40;99.90;;;;;;5133653;27;20047;-79
2022/01/06 06:30:26;;;;;;;35.73;4.00;;;0.60;99.90;;;;;;5134448;27;20121;-78
2022/01/06 06:32:52;;;;;;;40.97;4.53;;;1.60;99.90;;;;;;5134706;27;20480;-78
2022/01/06 06:35:18;;;;;;;30.40;3.97;;;4.10;99.90;;;;;;5134318;27;20189;-78
2022/01/06 06:37:43;;;;;;;33.13;4.53;;;2.00;99.90;;;;;;5098978;27;20046;-78
2022/01/06 06:40:10;;;;;;;37.13;4.40;;;2.10;99.90;;;;;;5121905;27;20053;-77
2022/01/06 06:42:37;;;;;;;28.23;4.23;;;4.50;99.90;;;;;;5113456;28;20079;-78
2022/01/06 06:45:03;;;;;;;34.47;3.63;;;2.00;99.90;;;;;;5113549;28;20051;-78
2022/01/06 06:47:29;;;;;;;31.43;4.13;;;1.90;99.90;;;;;;5113827;28;20041;-78
2022/01/06 06:49:56;;;;;;;40.20;5.00;;;2.00;99.90;;;;;;5113943;28;20120;-78
2022/01/06 06:52:22;;;;;;;28.80;4.28;;;1.20;99.90;;;;;;5112905;28;20098;-77
2022/01/06 06:54:48;;;;;;;32.57;4.60;;;1.90;99.90;;;;;;5112431;28;20047;-79
2022/01/06 06:57:14;;;;;;;45.10;5.20;;;1.50;99.90;;;;;;5113920;28;20129;-78
2022/01/06 06:59:40;;;;;;;29.10;3.97;;;0.90;99.90;;;;;;5113442;28;20066;-78
2022/01/06 07:02:06;;;;;;;24.67;4.53;;;1.90;99.90;;;;;;5113859;28;20435;-78
2022/01/06 07:04:32;;;;;;;32.80;4.70;;;4.10;99.90;;;;;;5112180;28;20055;-78
2022/01/06 07:06:58;;;;;;;30.23;4.63;;;2.30;99.90;;;;;;5113082;28;20436;-78
2022/01/06 07:09:23;;;;;;;36.30;5.13;;;3.70;99.90;;;;;;5111521;28;20066;-77
2022/01/06 07:11:49;;;;;;;36.13;5.10;;;;;;;;;;5113317;28;20046;-78
2022/01/06 07:14:15;;;;;;;37.57;4.97;;;1.90;99.90;;;;;;5113466;28;20122;-77
2022/01/06 07:16:41;;;;;;;50.50;5.73;;;4.20;99.90;;;;;;5112771;28;20142;-77
2022/01/06 07:19:06;;;;;;;38.13;4.87;;;1.50;99.90;;;;;;5113659;28;20130;-78
2022/01/06 07:21:32;;;;;;;41.43;5.40;;;0.50;99.90;;;;;;5112793;28;20047;-77
2022/01/06 07:23:58;;;;;;;30.20;4.80;;;-0.70;99.90;;;;;;5112216;28;20077;-76
2022/01/06 07:26:23;;;;;;;28.97;5.03;;;3.30;99.90;;;;;;5113157;28;20152;-76
2022/01/06 07:28:49;;;;;;;31.73;4.83;;;1.70;99.90;;;;;;5118693;27;20043;-76
2022/01/06 07:31:15;;;;;;;40.77;4.83;;;;;;;;;;5132722;27;20055;-76
2022/01/06 07:33:41;;;;;;;31.33;5.23;;;1.50;99.90;;;;;;5132893;27;20043;-76
2022/01/06 07:36:07;;;;;;;31.70;4.57;;;4.40;99.90;;;;;;5133607;27;20051;-76
2022/01/06 07:38:33;;;;;;;25.97;4.93;;;0.30;99.90;;;;;;5132449;27;20047;-79
2022/01/06 07:40:58;;;;;;;40.70;5.87;;;3.90;99.90;;;;;;5133098;27;20055;-77
2022/01/06 07:43:24;;;;;;;44.53;5.67;;;;;;;;;;5132933;27;20452;-78
2022/01/06 07:45:50;;;;;;;47.63;5.83;;;5.10;99.90;;;;;;5132648;27;20059;-77
2022/01/06 07:48:20;;;;;;;33.97;5.60;;;2.10;99.90;;;;;;5133502;27;20043;-77
2022/01/06 07:50:46;;;;;;;34.80;5.87;;;1.70;99.90;;;;;;5121963;27;20090;-77
2022/01/06 07:53:13;;;;;;;46.77;6.07;;;;;;;;;;5128510;27;20487;-77
2022/01/06 07:55:39;;;;;;;37.90;5.67;;;0.50;99.90;;;;;;5132226;27;20078;-77
2022/01/06 07:58:05;;;;;;;47.20;6.17;;;1.60;99.90;;;;;;5132203;27;20099;-77
2022/01/06 08:00:31;;;;;;;31.27;6.40;;;4.70;99.90;;;;;;5131093;27;20046;-77
2022/01/06 08:02:57;;;;;;;33.00;6.10;;;;;;;;;;5132959;27;20079;-77
2022/01/06 08:05:26;;;;;;;39.60;6.53;;;2.60;99.90;;;;;;5133130;27;20047;-77
2022/01/06 08:07:53;;;;;;;35.43;6.23;;;1.90;99.90;;;;;;5132285;27;20058;-77
2022/01/06 08:10:19;;;;;;;36.20;6.60;;;2.50;99.90;;;;;;5132704;27;20043;-77
2022/01/06 08:12:44;;;;;;;26.53;6.63;;;2.00;99.90;;;;;;5131871;27;20051;-77
2022/01/06 08:15:10;;;;;;;40.50;6.50;;;2.20;99.90;;;;;;5133051;27;20046;-78
2022/01/06 08:17:37;;;;;;;34.57;6.13;;;4.90;99.90;;;;;;5132692;27;20039;-78
2022/01/06 08:20:04;;;;;;;40.57;5.70;;;5.60;99.90;;;;;;5132892;27;20047;-79
2022/01/06 08:22:30;;;;;;;34.47;6.47;;;2.60;99.90;;;;;;5131973;27;20122;-76
2022/01/06 08:24:56;;;;;;;46.70;6.73;;;3.90;99.90;;;;;;5132230;27;20621;-77
2022/01/06 08:27:23;;;;;;;40.70;6.07;;;4.50;99.90;;;;;;5132752;27;20047;-77
2022/01/06 08:29:50;;;;;;;33.70;6.23;;;3.10;99.90;;;;;;5131915;27;20140;-77
2022/01/06 08:32:16;;;;;;;48.28;7.30;;;2.50;99.90;;;;;;5114101;27;20791;-77
2022/01/06 08:34:41;;;;;;;34.60;6.90;;;3.50;99.90;;;;;;5131896;27;20301;-78
2022/01/06 08:37:07;;;;;;;44.47;6.70;;;5.30;99.90;;;;;;5132124;27;20047;-78
2022/01/06 08:39:33;;;;;;;39.00;5.50;;;0.80;99.90;;;;;;5126095;27;20447;-77
2022/01/06 08:41:59;;;;;;;44.47;6.30;;;3.30;99.90;;;;;;5111903;28;20433;-77
2022/01/06 08:44:24;;;;;;;33.40;6.23;;;4.90;99.90;;;;;;5111555;28;20112;-77
2022/01/06 08:46:50;;;;;;;35.53;5.83;;;3.20;99.90;;;;;;5110348;28;20135;-77
2022/01/06 08:49:16;;;;;;;36.30;5.80;;;3.40;99.90;;;;;;5111671;28;20447;-78
2022/01/06 08:51:42;;;;;;;37.47;6.87;;;2.50;99.90;;;;;;5109690;28;20053;-79
2022/01/06 08:54:08;;;;;;;35.50;7.43;;;3.10;99.90;;;;;;5111481;28;20234;-77
2022/01/06 08:56:35;;;;;;;30.30;6.70;;;5.10;99.90;;;;;;5111326;28;20128;-77
2022/01/06 08:59:01;;;;;;;37.95;5.60;;;;;;;;;;5111890;28;20138;-77
2022/01/06 09:01:27;;;;;;;33.17;5.63;;;2.50;99.90;;;;;;5111358;28;20535;-77
2022/01/06 09:03:53;;;;;;;37.57;6.23;;;4.30;99.90;;;;;;5109438;28;20052;-77
2022/01/06 09:06:20;;;;;;;28.53;5.93;;;4.80;99.90;;;;;;5111899;28;20048;-77
2022/01/06 09:08:46;;;;;;;37.27;7.20;;;1.60;99.90;;;;;;5109991;28;20515;-78
2022/01/06 09:11:12;;;;;;;29.53;6.37;;;;;;;;;;5111536;28;20488;-78
2022/01/06 09:13:38;;;;;;;30.25;6.93;;;1.70;99.90;;;;;;5111167;28;20036;-78
2022/01/06 09:16:08;;;;;;;26.57;5.63;;;5.20;99.90;;;;;;5111557;28;20379;-76
2022/01/06 09:18:37;;;;;;;24.93;5.40;;;2.90;99.90;;;;;;5111064;28;20047;-78
2022/01/06 09:21:04;;;;;;;40.33;6.80;;;5.60;99.90;;;;;;5111541;28;20047;-78
2022/01/06 09:23:29;;;;;;;38.30;6.40;;;2.70;99.90;;;;;;5110200;28;20046;-78
2022/01/06 09:25:55;;;;;;;31.60;5.47;;;3.30;99.90;;;;;;5114775;28;20048;-78
2022/01/06 09:28:21;;;;;;;35.75;6.53;;;2.80;99.90;;;;;;5117294;27;20044;-78
2022/01/06 09:30:47;;;;;;;38.80;6.93;;;;;;;;;;5135789;27;20042;-77
2022/01/06 09:33:13;;;;;;;32.70;6.10;;;;;;;;;;5135880;27;20035;-77
2022/01/06 09:35:39;;;;;;;39.77;6.50;;;2.80;99.90;;;;;;5135442;27;20051;-79
2022/01/06 09:38:05;;;;;;;28.77;6.00;;;5.80;99.90;;;;;;5135897;27;20159;-78
2022/01/06 09:40:31;;;;;;;37.80;6.20;;;4.00;99.90;;;;;;5135725;27;20051;-79
2022/01/06 09:42:56;;;;;;;38.97;7.07;;;3.10;99.90;;;;;;5135486;27;20051;-78
2022/01/06 09:45:27;;;;;;;32.17;6.63;;;5.90;99.90;;;;;;5135961;27;20063;-77
2022/01/06 09:47:53;;;;;;;35.40;7.13;;;4.20;99.90;;;;;;5135138;27;20093;-77
2022/01/06 09:50:19;;;;;;;39.07;6.73;;;6.00;99.90;;;;;;5128842;27;20218;-78
2022/01/06 09:52:46;;;;;;;41.88;9.02;;;5.70;99.90;;;;;;5116763;27;20045;-78
2022/01/06 09:55:13;;;;;;;31.75;7.35;;;5.90;99.90;;;;;;5135183;27;20157;-77
2022/01/06 09:57:39;;;;;;;43.65;8.07;;;;;;;;;;5135043;27;20061;-78
2022/01/06 10:00:08;;;;;;;33.23;7.80;;;4.50;99.90;;;;;;5135656;27;20043;-77
2022/01/06 10:02:36;;;;;;;39.40;7.73;;;4.10;99.90;;;;;;5135397;27;20043;-78
2022/01/06 10:05:04;;;;;;;48.28;8.40;;;4.10;99.90;;;;;;5134212;27;20483;-78
2022/01/06 10:07:40;;;;;;;38.03;7.97;;;4.60;99.90;;;;;;5135314;27;20111;-78
2022/01/06 10:10:11;;;;;;;37.20;7.47;;;6.50;99.90;;;;;;5135209;27;20505;-79
2022/01/06 10:12:39;;;;;;;36.97;7.70;;;;;;;;;;5135212;27;20039;-84
2022/01/06 10:15:17;;;;;;;40.38;8.75;;;5.10;99.90;;;;;;5135051;27;20375;-77
2022/01/06 10:17:43;;;;;;;42.45;7.40;;;6.00;99.90;;;;;;5134988;27;20047;-79
2022/01/06 10:20:11;;;;;;;38.13;8.98;;;3.80;99.90;;;;;;5135142;27;20043;-79
2022/01/06 10:22:47;;;;;;;;;;;5.30;99.90;;;;;;5135270;27;20039;-80
2022/01/06 10:25:13;;;;;;;42.03;15.98;;;5.30;99.90;;;;;;5134740;27;20027;-79
2022/01/06 10:27:41;;;;;;;45.80;11.88;;;5.80;99.90;;;;;;5133232;27;20161;-80
2022/01/06 10:30:08;;;;;;;41.53;12.07;;;5.80;99.90;;;;;;5135088;27;20149;-78
2022/01/06 10:32:37;;;;;;;35.05;9.18;;;6.50;99.90;;;;;;5133845;27;20039;-79
2022/01/06 10:35:04;;;;;;;52.53;14.55;;;6.30;99.90;;;;;;5132993;27;20444;-78
2022/01/06 10:37:39;;;;;;;34.43;8.77;;;5.20;99.90;;;;;;5116474;27;20050;-78
2022/01/06 10:40:17;;;;;;;34.47;8.90;;;6.30;99.90;;;;;;5121511;27;20058;-78
2022/01/06 10:42:47;;;;;;;33.35;7.15;;;5.70;99.90;;;;;;5114050;28;20126;-79
2022/01/06 10:45:19;;;;;;;27.98;6.43;;;6.70;99.90;;;;;;5122436;27;20203;-79
2022/01/06 10:47:47;;;;;;;42.00;21.48;;;6.20;99.90;;;;;;5134531;27;20047;-81
2022/01/06 10:50:27;;;;;;;;;;;8.50;99.90;;;;;;5135161;27;20047;-80
2022/01/06 10:53:06;;;;;;;36.50;7.00;;;5.40;99.90;;;;;;5133723;27;19920;-78
2022/01/06 10:55:35;;;;;;;47.30;6.65;;;6.10;99.90;;;;;;5134145;27;20105;-79
2022/01/06 10:58:05;;;;;;;36.40;7.22;;;6.10;99.90;;;;;;5134020;27;20396;-81
2022/01/06 11:00:37;;;;;;;32.60;6.90;;;6.50;99.90;;;;;;5116383;27;20054;-79
2022/01/06 11:03:12;;;;;;;25.85;5.72;;;6.20;99.90;;;;;;5133759;27;20045;-81
2022/01/06 11:05:43;;;;;;;82.80;29.88;;;8.80;99.90;;;;;;5134230;27;20078;-81
2022/01/06 11:08:09;;;;;;;33.58;7.97;;;6.60;99.90;;;;;;5115827;27;20043;-80
2022/01/06 11:10:46;;;;;;;87.25;52.95;;;6.80;99.90;;;;;;5133776;27;20043;-80
2022/01/06 11:13:14;;;;;;;23.42;5.00;;;;;;;;;;5134258;27;20142;-80
2022/01/06 11:15:41;;;;;;;31.45;5.38;;;6.60;99.90;;;;;;5133985;27;20150;-80
2022/01/06 11:18:07;;;;;;;28.55;5.22;;;6.30;99.90;;;;;;5133963;27;20039;-80
2022/01/06 11:20:33;;;;;;;22.77;4.70;;;6.70;99.90;;;;;;5115665;27;20051;-80
2022/01/06 11:23:00;;;;;;;30.90;5.68;;;6.00;99.90;;;;;;5133117;27;20043;-80
2022/01/06 11:25:36;;;;;;;31.20;6.32;;;7.90;99.90;;;;;;5133574;27;20043;-80
2022/01/06 11:28:10;;;;;;;27.17;5.05;;;7.40;99.90;;;;;;5133275;27;20047;-80
2022/01/06 11:30:45;;;;;;;30.05;5.78;;;7.60;99.90;;;;;;5115205;27;20084;-81
2022/01/06 11:33:12;;;;;;;42.78;18.17;;;6.60;99.90;;;;;;5133855;27;20114;-81
2022/01/06 11:35:57;;;;;;;34.60;5.97;;;7.20;99.90;;;;;;5133684;27;20062;-80
2022/01/06 11:38:27;;;;;;;32.25;5.35;;;7.70;99.90;;;;;;5115171;27;20150;-80
2022/01/06 11:41:10;;;;;;;30.95;5.50;;;7.00;99.90;;;;;;5132722;27;20445;-80
2022/01/06 11:43:37;;;;;;;31.20;5.05;;;9.50;99.90;;;;;;5133655;27;20085;-81
2022/01/06 11:46:03;;;;;;;30.00;4.95;;;6.90;99.90;;;;;;5132577;27;20054;-81
2022/01/06 11:48:29;;;;;;;32.88;5.00;;;7.00;99.90;;;;;;5133251;27;20047;-81
2022/01/06 11:50:55;;;;;;;29.70;4.88;;;7.00;99.90;;;;;;5113881;27;20047;-81
2022/01/06 11:53:30;;;;;;;22.17;4.70;;;6.80;99.90;;;;;;5138445;27;20035;-82
2022/01/06 11:55:56;;;;;;;33.78;9.85;;;6.80;99.90;;;;;;5153004;27;20486;-80
2022/01/06 11:58:22;;;;;;;25.13;5.75;;;6.80;99.90;;;;;;5153795;27;20047;-81
2022/01/06 12:00:58;;;;;;;39.00;26.33;;;6.70;99.90;;;;;;5153588;27;20096;-81
2022/01/06 12:03:38;;;;;;;29.15;4.95;;;7.50;99.90;;;;;;5153564;27;20039;-81
2022/01/06 12:06:05;;;;;;;29.08;7.63;;;6.30;99.90;;;;;;5153496;27;20381;-80
2022/01/06 12:08:41;;;;;;;27.38;4.80;;;6.90;99.90;;;;;;5134662;27;20380;-81
2022/01/06 12:11:21;;;;;;;23.75;4.82;;;8.30;99.90;;;;;;5135069;27;20055;-81
2022/01/06 12:13:48;;;;;;;29.63;4.88;;;7.10;99.90;;;;;;5134618;27;20321;-81
2022/01/06 12:16:36;;;;;;;80.20;72.07;;;9.20;99.90;;;;;;5153592;27;20488;-82
2022/01/06 12:19:14;;;;;;;29.90;5.95;;;4.90;99.90;;;;;;5134845;27;20517;-83
2022/01/06 12:21:39;;;;;;;26.25;4.40;;;7.00;99.90;;;;;;5153553;27;20125;-83
2022/01/06 12:24:08;;;;;;;21.17;5.18;;;7.80;99.90;;;;;;5152340;27;20126;-82
2022/01/06 12:26:35;;;;;;;33.03;5.80;;;8.00;99.90;;;;;;5153427;27;20078;-81
2022/01/06 12:29:01;;;;;;;26.50;4.37;;;7.30;99.90;;;;;;5152612;27;20118;-81
2022/01/06 12:31:29;;;;;;;23.15;4.65;;;8.60;99.90;;;;;;5135072;27;20063;-81
2022/01/06 12:33:59;;;;;;;38.65;25.17;;;8.70;99.90;;;;;;5152574;27;20038;-81
2022/01/06 12:36:36;;;;;;;27.20;4.90;;;7.90;99.90;;;;;;5153267;27;20103;-81
2022/01/06 12:39:12;;;;;;;32.10;5.25;;;7.40;99.90;;;;;;5151907;27;20054;-82
2022/01/06 12:41:39;;;;;;;25.58;4.60;;;9.30;99.90;;;;;;5114374;27;20058;-83
2022/01/06 12:44:06;;;;;;;69.18;61.28;;;7.00;99.90;;;;;;5132232;27;20043;-82
2022/01/06 12:46:43;;;;;;;27.33;6.63;;;7.40;99.90;;;;;;5127348;27;20204;-83
2022/01/06 12:49:10;;;;;;;49.38;30.70;;;6.60;99.90;;;;;;5109960;28;20058;-83
2022/01/06 12:51:41;;;;;;;28.75;10.45;;;7.00;99.90;;;;;;5111688;28;20126;-82
2022/01/06 12:54:19;;;;;;;35.33;7.88;;;6.70;99.90;;;;;;5110857;28;20623;-83
2022/01/06 12:56:53;;;;;;;31.33;7.00;;;7.00;99.90;;;;;;5111905;28;20494;-83
2022/01/06 12:59:33;;;;;;;30.90;5.70;;;7.00;99.90;;;;;;5111644;28;20095;-83